Time;durP1;ratioP1;P1;durP2;ratioP2;P2;SDS_P1;SDS_P2;PMS_P1;PMS_P2;Temp;Humidity;BMP_temperature;BMP_pressure;BME280_temperature;BME280_humidity;BME280_pressure;Samples;Min_cycle;Max_cycle;Signal;HPM_P1;HPM_P2
2022/07/12 00:02:15;;;;;;;3.87;3.45;;;;;;;12.77;100.00;98783.04;1648277;87;21429;-70
2022/07/12 00:04:41;;;;;;;5.05;3.47;;;;;;;12.71;100.00;98784.17;1677127;85;20947;-68
2022/07/12 00:07:08;;;;;;;3.15;2.62;;;;;;;12.67;100.00;98783.95;1648142;87;21003;-70
2022/07/12 00:09:35;;;;;;;4.72;3.33;;;;;;;12.62;100.00;98774.59;1677095;85;20859;-70
2022/07/12 00:12:05;;;;;;;9.20;4.22;;;;;;;12.57;100.00;98775.99;1648281;87;21223;-72
2022/07/12 00:14:32;;;;;;;;;;;;;;;12.56;100.00;98771.68;1654263;85;20922;-71
2022/07/12 00:16:59;;;;;;;6.95;4.28;;;;;;;12.57;100.00;98778.13;1675585;84;20103;-70
2022/07/12 00:19:26;;;;;;;7.20;3.20;;;;;;;12.52;100.00;98780.88;1666108;86;20948;-69
2022/07/12 00:21:53;;;;;;;7.72;5.53;;;;;;;12.50;100.00;98783.60;1695089;84;21000;-67
2022/07/12 00:24:20;;;;;;;13.50;7.72;;;;;;;12.47;100.00;98780.94;1695463;84;21918;-71
2022/07/12 00:26:47;;;;;;;9.55;6.87;;;;;;;12.41;100.00;98782.06;1695256;84;21406;-73
2022/07/12 00:29:15;;;;;;;9.60;6.50;;;;;;;12.42;100.00;98781.79;1633480;86;20979;-74
2022/07/12 00:31:42;;;;;;;18.87;10.95;;;;;;;12.43;100.00;98781.23;1670424;86;20972;-72
2022/07/12 00:34:08;;;;;;;19.73;8.40;;;;;;;12.44;100.00;98782.31;1695218;84;21045;-72
2022/07/12 00:36:37;;;;;;;15.03;8.43;;;;;;;12.48;100.00;98779.05;1695475;84;21851;-72
2022/07/12 00:39:04;;;;;;;17.27;9.30;;;;;;;12.43;100.00;98783.38;1695469;84;20915;-75
2022/07/12 00:41:32;;;;;;;7.53;5.22;;;;;;;12.43;100.00;98761.05;1670197;85;21446;-70
2022/07/12 00:43:59;;;;;;;9.65;6.33;;;;;;;12.42;100.00;98777.75;1695262;84;20939;-71
2022/07/12 00:46:25;;;;;;;9.55;5.37;;;;;;;12.39;100.00;98782.34;1695128;84;20884;-70
2022/07/12 00:48:52;;;;;;;24.50;12.82;;;;;;;12.39;100.00;98777.50;1670300;86;21210;-70
2022/07/12 00:51:19;;;;;;;5.72;4.05;;;;;;;12.33;100.00;98774.62;1645313;84;20990;-68
2022/07/12 00:53:46;;;;;;;8.78;4.20;;;;;;;12.28;100.00;98774.12;1695193;84;20992;-72
2022/07/12 00:56:14;;;;;;;14.80;7.47;;;;;;;12.23;100.00;98770.93;1643695;86;20901;-72
2022/07/12 00:58:43;;;;;;;4.53;4.10;;;;;;;12.19;100.00;98768.53;1695576;84;20959;-74
2022/07/12 01:01:10;;;;;;;14.68;9.50;;;;;;;12.19;100.00;98766.39;1695614;84;21131;-73
2022/07/12 01:03:38;;;;;;;9.30;5.67;;;;;;;12.15;100.00;98766.69;1695173;84;21002;-76
2022/07/12 01:06:07;;;;;;;6.80;5.05;;;;;;;12.10;100.00;98771.60;1695186;84;21433;-72
2022/07/12 01:08:35;;;;;;;18.15;10.75;;;;;;;12.08;100.00;98764.35;1695269;84;20935;-72
2022/07/12 01:11:02;;;;;;;20.52;14.65;;;;;;;12.08;100.00;98764.35;1695376;84;21472;-74
2022/07/12 01:13:29;;;;;;;61.48;55.33;;;;;;;12.06;100.00;98757.10;1621822;86;21264;-74
2022/07/12 01:15:57;;;;;;;101.18;93.22;;;;;;;12.08;100.00;98764.35;1695175;84;20880;-75
2022/07/12 01:18:26;;;;;;;45.53;42.00;;;;;;;12.06;100.00;98766.52;1670630;86;21426;-72
2022/07/12 01:20:54;;;;;;;20.08;18.07;;;;;;;12.06;100.00;98765.72;1695233;84;20912;-74
2022/07/12 01:23:22;;;;;;;45.90;28.52;;;;;;;12.04;100.00;98763.85;1670565;86;20944;-74
2022/07/12 01:25:50;;;;;;;43.33;22.98;;;;;;;12.01;100.00;98760.64;1695087;84;21569;-73
2022/07/12 01:28:16;;;;;;;28.52;18.90;;;;;;;12.01;100.00;98763.33;1670244;86;21000;-74
2022/07/12 01:30:43;;;;;;;5.72;5.22;;;;;;;12.01;100.00;98767.91;1695175;84;20919;-73
2022/07/12 01:33:10;;;;;;;5.37;4.83;;;;;;;12.00;100.00;98775.18;1695146;84;21003;-74
2022/07/12 01:35:38;;;;;;;4.83;3.02;;;;;;;11.98;100.00;98768.48;1670400;86;21091;-73
2022/07/12 01:38:06;;;;;;;3.98;3.47;;;;;;;11.96;100.00;98771.98;1695207;84;21301;-75
2022/07/12 01:40:35;;;;;;;11.05;8.23;;;;;;;11.95;100.00;98770.37;1670327;86;21486;-75
2022/07/12 01:43:01;;;;;;;;;;;;;;;11.93;100.00;98776.56;1698094;84;20975;-75
2022/07/12 01:45:28;;;;;;;11.22;10.13;;;;;;;11.91;100.00;98778.20;1695330;84;20167;-74
2022/07/12 01:47:58;;;;;;;5.45;5.05;;;;;;;11.90;100.00;98768.52;1695399;84;20876;-75
2022/07/12 01:50:25;;;;;;;6.47;4.33;;;;;;;11.88;100.00;98767.19;1695387;84;21312;-71
2022/07/12 01:52:53;;;;;;;4.15;3.15;;;;;;;11.90;100.00;98770.41;1695460;84;20896;-75
2022/07/12 01:55:20;;;;;;;4.12;2.75;;;;;;;11.91;100.00;98766.11;1670616;86;21004;-75
2022/07/12 01:57:47;;;;;;;8.43;3.00;;;;;;;11.91;100.00;98769.34;1695569;84;20896;-72
2022/07/12 02:00:14;;;;;;;4.00;3.00;;;;;;;11.95;100.00;98769.81;1670529;86;20928;-72
2022/07/12 02:02:41;;;;;;;11.95;3.25;;;;;;;11.93;100.00;98774.70;1695428;84;21834;-72
2022/07/12 02:05:10;;;;;;;2.80;2.60;;;;;;;11.93;100.00;98773.87;1695378;84;21541;-73
2022/07/12 02:07:37;;;;;;;4.00;2.62;;;;;;;11.93;100.00;98770.66;1668382;84;20939;-74
2022/07/12 02:10:09;;;;;;;3.17;2.95;;;;;;;11.92;100.00;98768.25;1670486;86;20953;-72
2022/07/12 02:12:36;;;;;;;4.03;2.80;;;;;;;11.92;100.00;98769.59;1695457;84;20896;-69
2022/07/12 02:15:07;;;;;;;3.25;2.98;;;;;;;11.92;100.00;98764.22;1670329;86;21284;-72
2022/07/12 02:17:35;;;;;;;3.22;2.80;;;;;;;11.91;100.00;98770.14;1690583;84;21007;-74
2022/07/12 02:20:05;;;;;;;3.62;3.08;;;;;;;11.91;100.00;98766.66;1679766;85;21043;-69
2022/07/12 02:22:34;;;;;;;2.90;2.70;;;;;;;11.95;100.00;98772.51;1673245;85;20939;-69
2022/07/12 02:25:01;;;;;;;3.90;2.83;;;;;;;11.96;100.00;98774.13;1682329;84;20950;-72
2022/07/12 02:27:28;;;;;;;5.15;3.35;;;;;;;11.96;100.00;98771.98;1707657;84;21913;-69
2022/07/12 02:29:56;;;;;;;2.87;2.52;;;;;;;11.91;100.00;98766.11;1707471;84;20904;-77
2022/07/12 02:32:23;;;;;;;;;;;;;;;11.92;100.00;98754.80;1710796;84;20851;-75
2022/07/12 02:34:49;;;;;;;4.80;3.02;;;;;;;11.92;100.00;98759.63;1708262;84;20108;-72
2022/07/12 02:37:16;;;;;;;3.12;2.72;;;;;;;11.94;100.00;98762.05;1707707;84;20967;-73
2022/07/12 02:39:45;;;;;;;9.45;3.02;;;;;;;11.93;100.00;98763.94;1707841;84;21253;-73
2022/07/12 02:42:12;;;;;;;3.37;2.52;;;;;;;11.95;100.00;98767.13;1708003;84;21387;-72
2022/07/12 02:44:39;;;;;;;7.58;3.05;;;;;;;11.88;100.00;98772.05;1707733;84;20920;-72
2022/07/12 02:47:07;;;;;;;3.87;2.70;;;;;;;11.90;100.00;98779.82;1707620;84;20849;-73
2022/07/12 02:49:34;;;;;;;5.08;3.30;;;;;;;11.88;100.00;98778.77;1708223;84;20878;-73
2022/07/12 02:52:03;;;;;;;3.33;2.70;;;;;;;11.88;100.00;98776.61;1677685;85;20943;-73
2022/07/12 02:54:30;;;;;;;3.30;3.00;;;;;;;11.83;100.00;98773.38;1708316;84;20895;-71
2022/07/12 02:56:57;;;;;;;3.37;3.00;;;;;;;11.85;100.00;98772.56;1707607;84;20921;-74
2022/07/12 02:59:24;;;;;;;3.55;2.80;;;;;;;11.86;100.00;98772.84;1707994;84;20922;-75
2022/07/12 03:01:51;;;;;;;4.17;2.77;;;;;;;11.86;100.00;98776.88;1677913;85;20952;-74
2022/07/12 03:04:19;;;;;;;3.67;2.92;;;;;;;11.85;100.00;98783.87;1708068;84;21613;-73
2022/07/12 03:06:46;;;;;;;2.90;2.70;;;;;;;11.87;100.00;98776.36;1707480;84;20901;-74
2022/07/12 03:09:14;;;;;;;6.28;3.52;;;;;;;11.85;100.00;98779.28;1707562;84;20872;-73
2022/07/12 03:11:41;;;;;;;7.45;4.92;;;;;;;11.87;100.00;98777.70;1707999;84;21454;-75
2022/07/12 03:14:08;;;;;;;5.53;3.55;;;;;;;11.90;100.00;98779.82;1708104;84;21052;-69
2022/07/12 03:16:35;;;;;;;5.17;3.30;;;;;;;11.90;100.00;98772.55;1707909;84;21139;-70
2022/07/12 03:19:06;;;;;;;5.90;4.10;;;;;;;11.86;100.00;98772.84;1705517;84;20900;-74
2022/07/12 03:21:33;;;;;;;3.92;2.90;;;;;;;11.90;100.00;98779.27;1705594;84;20915;-72
2022/07/12 03:24:01;;;;;;;12.55;7.85;;;;;;;11.88;100.00;98779.30;1677542;83;20995;-71
2022/07/12 03:26:28;;;;;;;11.43;3.75;;;;;;;11.89;100.00;98777.68;1707350;84;21056;-72
2022/07/12 03:28:55;;;;;;;6.12;2.67;;;;;;;11.87;100.00;98770.98;1705630;84;21257;-73
2022/07/12 03:31:22;;;;;;;8.08;2.98;;;;;;;11.91;100.00;98769.34;1705294;84;20959;-73
2022/07/12 03:33:50;;;;;;;3.65;3.05;;;;;;;11.92;100.00;98770.39;1679484;84;20881;-74
2022/07/12 03:36:16;;;;;;;4.58;2.65;;;;;;;11.92;100.00;98762.87;1705489;84;20877;-72
2022/07/12 03:38:43;;;;;;;5.25;3.95;;;;;;;11.92;100.00;98760.98;1705583;84;20907;-69
2022/07/12 03:41:10;;;;;;;3.52;3.20;;;;;;;11.92;100.00;98757.48;1705165;84;21277;-74
2022/07/12 03:43:37;;;;;;;3.80;3.02;;;;;;;11.94;100.00;98768.23;1705570;84;20837;-72
2022/07/12 03:46:04;;;;;;;5.05;2.62;;;;;;;11.96;100.00;98770.09;1705211;84;20886;-73
2022/07/12 03:48:31;;;;;;;4.78;2.90;;;;;;;11.92;100.00;98776.31;1705668;84;20960;-72
2022/07/12 03:50:59;;;;;;;9.00;2.80;;;;;;;11.99;100.00;98764.14;1705812;84;21599;-72
2022/07/12 03:53:25;;;;;;;5.05;2.50;;;;;;;11.98;100.00;98765.79;1705469;84;21145;-70
2022/07/12 03:55:52;;;;;;;4.50;2.60;;;;;;;12.03;100.00;98772.98;1705076;84;22397;-72
2022/07/12 03:58:19;;;;;;;2.42;2.30;;;;;;;12.04;100.00;98773.27;1679519;84;20913;-72
2022/07/12 04:00:46;;;;;;;2.60;2.40;;;;;;;12.07;100.00;98772.69;1705323;84;20876;-70
2022/07/12 04:03:13;;;;;;;5.58;2.70;;;;;;;12.02;100.00;98776.22;1705745;84;21516;-72
2022/07/12 04:05:40;;;;;;;3.05;2.75;;;;;;;12.07;100.00;98773.48;1705441;84;21187;-71
2022/07/12 04:08:07;;;;;;;2.60;2.33;;;;;;;12.06;100.00;98764.38;1705791;84;20865;-71
2022/07/12 04:10:35;;;;;;;3.85;2.83;;;;;;;12.08;100.00;98783.19;1705779;84;27990;-72
2022/07/12 04:13:01;;;;;;;3.20;2.62;;;;;;;12.14;100.00;98786.63;1675525;85;20947;-72
2022/07/12 04:15:29;;;;;;;3.75;2.47;;;;;;;12.15;100.00;98773.42;1705666;84;20867;-72
2022/07/12 04:17:56;;;;;;;2.80;2.60;;;;;;;12.16;100.00;98782.56;1705592;83;21191;-75
2022/07/12 04:20:23;;;;;;;2.67;2.47;;;;;;;12.14;100.00;98787.97;1719781;83;20861;-72
2022/07/12 04:22:49;;;;;;;5.90;2.72;;;;;;;12.21;100.00;98788.44;1719449;83;20853;-71
2022/07/12 04:25:16;;;;;;;3.20;2.10;;;;;;;12.22;100.00;98786.00;1719454;83;20928;-70
2022/07/12 04:27:43;;;;;;;2.87;2.10;;;;;;;12.20;100.00;98793.03;1719432;83;21422;-72
2022/07/12 04:30:10;;;;;;;2.90;2.70;;;;;;;12.26;100.00;98783.56;1719473;83;21195;-74
2022/07/12 04:32:37;;;;;;;3.83;2.67;;;;;;;12.31;100.00;98791.58;1719554;83;20908;-72
2022/07/12 04:35:05;;;;;;;2.80;2.58;;;;;;;12.33;100.00;98793.45;1719611;83;21416;-74
2022/07/12 04:37:32;;;;;;;2.47;2.22;;;;;;;12.33;100.00;98792.11;1719732;83;20916;-72
2022/07/12 04:39:59;;;;;;;4.97;2.62;;;;;;;12.41;100.00;98793.62;1719521;83;21421;-72
2022/07/12 04:42:26;;;;;;;3.50;2.62;;;;;;;12.44;100.00;98797.63;1719713;83;21197;-71
2022/07/12 04:44:54;;;;;;;2.52;2.33;;;;;;;12.42;100.00;98793.90;1691195;83;20900;-72
2022/07/12 04:47:21;;;;;;;4.40;2.70;;;;;;;12.49;100.00;98794.09;1720522;83;20935;-71
2022/07/12 04:49:48;;;;;;;5.60;2.20;;;;;;;12.51;100.00;98794.06;1719568;83;20924;-71
2022/07/12 04:52:14;;;;;;;2.05;1.95;;;;;;;12.59;100.00;98796.67;1719851;83;20960;-71
2022/07/12 04:54:41;;;;;;;2.77;2.40;;;;;;;12.60;100.00;98800.44;1719511;83;21872;-69
2022/07/12 04:57:08;;;;;;;3.17;2.65;;;;;;;12.67;100.00;98790.69;1719567;83;20892;-69
2022/07/12 04:59:35;;;;;;;3.52;2.37;;;;;;;12.75;100.00;98806.75;1719360;83;20937;-73
2022/07/12 05:02:02;;;;;;;4.20;2.30;;;;;;;12.79;100.00;98799.17;1719698;83;20920;-71
2022/07/12 05:04:34;;;;;;;3.97;2.10;;;;;;;12.89;100.00;98804.19;1719640;83;21454;-68
2022/07/12 05:07:01;;;;;;;6.03;2.77;;;;;;;13.05;100.00;98805.04;1719617;83;21087;-74
2022/07/12 05:09:27;;;;;;;3.15;2.85;;;;;;;13.19;100.00;98805.70;1719336;83;20888;-71
2022/07/12 05:11:54;;;;;;;5.60;2.70;;;;;;;13.25;100.00;98808.05;1719699;83;20965;-70
2022/07/12 05:14:21;;;;;;;2.37;2.10;;;;;;;13.44;100.00;98820.20;1719469;83;20888;-70
2022/07/12 05:16:49;;;;;;;;;;;;;;;13.52;100.00;98826.84;1722172;83;20888;-72
2022/07/12 05:19:17;;;;;;;4.27;2.10;;;;;;;13.62;100.00;98828.07;1723050;83;21816;-73
2022/07/12 05:21:44;;;;;;;3.17;2.67;;;;;;;13.71;100.00;98837.09;1724975;83;21778;-72
2022/07/12 05:24:11;;;;;;;6.40;3.30;;;;;;;13.89;100.00;98839.55;1725276;83;20896;-71
2022/07/12 05:26:37;;;;;;;5.20;2.77;;;;;;;14.18;100.00;98844.49;1725018;83;20884;-71
2022/07/12 05:29:04;;;;;;;4.97;2.42;;;;;;;14.40;100.00;98846.00;1725068;83;20936;-72
2022/07/12 05:31:31;;;;;;;3.02;2.40;;;;;;;14.45;100.00;98849.17;1725181;83;21090;-71
2022/07/12 05:33:57;;;;;;;2.40;2.20;;;;;;;14.53;100.00;98849.86;1725062;83;20833;-71
2022/07/12 05:36:24;;;;;;;2.37;2.17;;;;;;;14.16;100.00;98852.90;1725286;83;20912;-68
2022/07/12 05:38:51;;;;;;;3.33;2.17;;;;;;;14.05;100.00;98844.70;1724900;83;20891;-73
2022/07/12 05:41:17;;;;;;;2.52;2.33;;;;;;;14.11;100.00;98853.78;1725229;83;20888;-71
2022/07/12 05:43:44;;;;;;;3.65;2.30;;;;;;;14.23;100.00;98849.25;1725129;83;21227;-72
2022/07/12 05:46:11;;;;;;;4.37;2.20;;;;;;;14.29;100.00;98848.64;1725184;83;20888;-70
2022/07/12 05:48:38;;;;;;;3.85;2.50;;;;;;;14.19;100.00;98844.20;1725044;83;20821;-70
2022/07/12 05:53:50;;;;;;;6.55;3.08;;;;;;;14.21;100.00;98844.72;1724989;83;20892;-71
2022/07/12 05:56:17;;;;;;;2.87;2.58;;;;;;;14.26;100.00;98849.23;1725295;83;21037;-72
2022/07/12 05:58:43;;;;;;;4.55;2.72;;;;;;;14.43;100.00;98845.96;1724922;83;20876;-71
2022/07/12 06:01:10;;;;;;;5.47;2.50;;;;;;;14.15;100.00;98848.03;1725222;83;20935;-69
2022/07/12 06:03:37;;;;;;;3.72;3.35;;;;;;;14.23;100.00;98847.11;1724993;83;21426;-72
2022/07/12 06:06:04;;;;;;;4.67;3.58;;;;;;;14.21;100.00;98853.34;1725261;83;20940;-72
2022/07/12 06:08:32;;;;;;;5.17;3.20;;;;;;;14.18;100.00;98856.63;1698924;83;21266;-72
2022/07/12 06:10:59;;;;;;;2.85;2.60;;;;;;;14.31;100.00;98859.39;1725212;83;20888;-72
2022/07/12 06:13:26;;;;;;;4.20;2.67;;;;;;;14.40;100.00;98869.51;1724863;83;20904;-72
2022/07/12 06:15:53;;;;;;;2.77;2.52;;;;;;;14.36;100.00;98874.16;1725254;83;20918;-72
2022/07/12 06:18:20;;;;;;;3.75;2.60;;;;;;;14.27;100.00;98881.31;1724802;83;20935;-70
2022/07/12 06:20:47;;;;;;;8.40;4.78;;;;;;;14.17;100.00;98889.58;1698663;83;21399;-69
2022/07/12 06:23:15;;;;;;;4.72;2.80;;;;;;;14.10;100.00;98891.28;1724876;83;20861;-71
2022/07/12 06:25:41;;;;;;;4.60;2.30;;;;;;;13.82;100.00;98896.30;1725215;83;21466;-70
2022/07/12 06:28:08;;;;;;;12.23;2.72;;;;;;;13.54;100.00;98892.62;1724912;83;21446;-72
2022/07/12 06:30:35;;;;;;;4.95;2.55;;;;;;;13.50;100.00;98893.20;1725266;83;20932;-68
2022/07/12 06:33:02;;;;;;;2.87;2.67;;;;;;;13.24;100.00;98895.36;1724951;83;21233;-72
2022/07/12 06:35:28;;;;;;;3.20;3.00;;;;;;;13.12;100.00;98907.63;1725036;83;20924;-71
2022/07/12 06:37:55;;;;;;;4.22;2.65;;;;;;;12.82;100.00;98899.58;1698626;83;20857;-68
2022/07/12 06:40:22;;;;;;;5.53;3.15;;;;;;;12.59;100.00;98903.01;1725106;83;20849;-71
2022/07/12 06:42:50;;;;;;;6.33;3.20;;;;;;;12.26;100.00;98901.95;1724980;83;20904;-73
2022/07/12 06:45:16;;;;;;;6.17;3.22;;;;;;;12.05;100.00;98911.48;1725479;83;21186;-71
2022/07/12 06:47:43;;;;;;;3.72;3.00;;;;;;;11.91;100.00;98907.84;1725118;83;20844;-71
2022/07/12 06:50:10;;;;;;;8.78;5.10;;;;;;;11.71;100.00;98921.62;1724972;83;20940;-73
2022/07/12 06:52:37;;;;;;;20.15;13.93;;;;;;;11.66;100.00;98920.30;1725290;83;20884;-68
2022/07/12 06:55:04;;;;;;;4.00;3.58;;;;;;;11.62;100.00;98907.14;1725176;83;21482;-69
2022/07/12 06:57:33;;;;;;;34.73;28.07;;;;;;;11.55;100.00;98903.95;1725011;83;27225;-69
2022/07/12 07:00:00;;;;;;;39.83;35.48;;;;;;;11.56;100.00;98902.34;1725363;83;20937;-69
2022/07/12 07:02:27;;;;;;;7.83;7.03;;;;;;;11.52;100.00;98891.06;1725120;83;20888;-68
2022/07/12 07:04:53;;;;;;;2.67;2.30;;;;;;;11.51;100.00;98890.27;1724817;83;20884;-71
2022/07/12 07:07:20;;;;;;;9.50;2.60;;;;;;;11.46;100.00;98894.84;1725114;83;21506;-70
2022/07/12 07:09:46;;;;;;;2.75;2.55;;;;;;;11.41;100.00;98899.69;1725130;83;21087;-68
2022/07/12 07:12:13;;;;;;;2.80;2.60;;;;;;;11.40;100.00;98897.30;1724865;83;21454;-66
2022/07/12 07:14:39;;;;;;;2.80;2.45;;;;;;;11.40;100.00;98887.89;1725195;83;20919;-66
2022/07/12 07:17:08;;;;;;;3.65;2.62;;;;;;;11.42;100.00;98885.19;1725231;83;20927;-68
2022/07/12 07:19:39;;;;;;;;;;;;;;;11.47;100.00;98885.17;1724802;83;21442;-70
2022/07/12 07:22:05;;;;;;;4.65;2.92;;;;;;;11.50;100.00;98891.33;1719424;83;21188;-68
2022/07/12 07:24:32;;;;;;;3.00;2.80;;;;;;;11.57;100.00;98893.72;1719378;83;21486;-69
2022/07/12 07:26:58;;;;;;;2.75;2.55;;;;;;;11.69;100.00;98892.86;1719411;83;21463;-68
2022/07/12 07:32:09;;;;;;;2.98;2.77;;;;;;;11.97;100.00;98893.26;1719452;83;20956;-68
2022/07/12 07:34:37;;;;;;;2.62;2.42;;;;;;;12.16;100.00;98900.13;1719591;83;21196;-67
2022/07/12 07:37:04;;;;;;;3.00;2.80;;;;;;;12.35;100.00;98905.11;1719370;83;20888;-70
2022/07/12 07:39:31;;;;;;;4.17;2.73;;;;;;;12.41;100.00;98895.09;1691619;83;20951;-70
2022/07/12 07:41:57;;;;;;;3.20;2.90;;;;;;;12.55;100.00;98898.75;1719529;83;20896;-66
2022/07/12 07:44:24;;;;;;;4.40;2.80;;;;;;;12.63;100.00;98904.06;1719555;83;20892;-69
2022/07/12 07:46:51;;;;;;;2.72;2.52;;;;;;;12.87;100.00;98900.08;1691275;83;21884;-72
2022/07/12 07:49:19;;;;;;;6.15;2.60;;;;;;;13.06;100.00;98902.85;1719876;83;20896;-68
2022/07/12 07:51:46;;;;;;;3.02;2.83;;;;;;;13.23;100.00;98896.46;1691324;83;20880;-70
2022/07/12 07:54:13;;;;;;;3.15;2.52;;;;;;;13.57;100.00;98901.47;1719274;83;20889;-69
2022/07/12 07:56:40;;;;;;;4.00;2.40;;;;;;;13.78;100.00;98907.41;1719425;83;20872;-69
2022/07/12 07:59:07;;;;;;;2.60;2.40;;;;;;;13.91;100.00;98901.28;1719280;83;21723;-70
2022/07/12 08:01:52;;;;;;;2.50;2.40;;;;;;;14.11;100.00;98906.40;1719078;83;20837;-70
2022/07/12 08:04:17;;;;;;;2.55;2.35;;;;;;;14.36;100.00;98902.50;1718714;83;20885;-75
2022/07/12 08:06:44;;;;;;;5.70;2.70;;;;;;;14.51;100.00;98905.50;1719373;83;20924;-67
2022/07/12 08:09:11;;;;;;;2.40;2.00;;;;;;;14.58;100.00;98907.30;1719488;83;21485;-73
2022/07/12 08:11:38;;;;;;;2.27;2.08;;;;;;;14.77;100.00;98914.02;1719276;83;21176;-69
2022/07/12 08:14:06;;;;;;;2.37;2.17;;;;;;;15.00;100.00;98910.09;1719462;83;20912;-74
2022/07/12 08:16:33;;;;;;;7.12;2.80;;;;;;;15.25;100.00;98912.86;1719482;83;20928;-73
2022/07/12 08:19:04;;;;;;;3.35;2.42;;;;;;;15.61;100.00;98917.02;1719615;83;20880;-74
2022/07/12 08:21:31;;;;;;;3.20;2.22;;;;;;;15.53;100.00;98909.61;1719312;83;20948;-74
2022/07/12 08:23:58;;;;;;;2.92;2.60;;;;;;;15.56;100.00;98913.06;1719158;83;21419;-73
2022/07/12 08:26:25;;;;;;;9.08;3.25;;;;;;;15.97;100.00;98913.58;1719391;83;21400;-75
2022/07/12 08:28:51;;;;;;;3.70;2.12;;;;;;;16.20;100.00;98914.40;1719372;83;20931;-73
2022/07/12 08:31:18;;;;;;;2.25;1.95;;;;;;;16.55;100.00;98919.27;1719306;83;20904;-76
2022/07/12 08:33:45;;;;;;;3.05;2.20;;;;;;;16.50;100.00;98916.13;1719225;83;20865;-74
2022/07/12 08:36:13;;;;;;;2.75;2.00;;;;;;;17.03;100.00;98918.63;1719449;83;21694;-76
2022/07/12 08:38:43;;;;;;;1.90;1.80;;;;;;;17.03;100.00;98918.63;1719264;83;20933;-70
2022/07/12 08:41:15;;;;;;;3.83;2.05;;;;;;;16.87;100.00;98919.02;1719083;83;20936;-78
2022/07/12 08:43:40;;;;;;;5.97;2.17;;;;;;;17.06;100.00;98914.73;1691110;83;21395;-71
2022/07/12 08:46:10;;;;;;;3.13;2.27;;;;;;;17.37;100.00;98915.27;1719461;83;20932;-72
2022/07/12 08:48:38;;;;;;;3.05;1.57;;;;;;;17.22;100.00;98923.80;1719485;83;21870;-71
2022/07/12 08:51:11;;;;;;;4.50;2.47;;;;;;;16.76;100.00;98916.87;1719217;83;20884;-74
2022/07/12 08:53:38;;;;;;;4.85;2.22;;;;;;;16.57;100.00;98922.48;1718651;83;20928;-76
2022/07/12 08:56:06;;;;;;;5.10;2.50;;;;;;;16.87;100.00;98924.99;1719348;83;21454;-68
2022/07/12 08:58:33;;;;;;;3.70;2.25;;;;;;;16.70;100.00;98925.66;1719431;83;21537;-69
2022/07/12 09:01:00;;;;;;;3.80;2.05;;;;;;;16.96;100.00;98915.56;1719199;83;21184;-69
2022/07/12 09:03:27;;;;;;;2.02;1.90;;;;;;;17.19;100.00;98914.38;1719362;83;20872;-70
2022/07/12 09:05:56;;;;;;;3.02;2.67;;;;;;;17.14;100.00;98914.52;1719303;83;20916;-70
2022/07/12 09:08:30;;;;;;;2.27;2.00;;;;;;;17.75;100.00;98923.64;1719525;83;20888;-70
2022/07/12 09:11:03;;;;;;;2.30;1.90;;;;;;;18.07;100.00;98930.35;1719196;83;20882;-71
2022/07/12 09:13:51;;;;;;;4.03;1.87;;;;;;;18.58;100.00;98937.69;1719674;83;21434;-67
2022/07/12 09:16:20;;;;;;;2.85;1.40;;;;;;;18.68;100.00;98934.41;1719194;83;20928;-71
2022/07/12 09:18:47;;;;;;;5.90;1.62;;;;;;;18.95;100.00;98949.57;1719588;83;20885;-72
2022/07/12 09:21:26;;;;;;;1.50;1.40;;;;;;;18.73;100.00;98939.67;1719414;83;20960;-73
2022/07/12 09:23:57;;;;;;;2.60;1.65;;;;;;;18.49;100.00;98936.09;1718597;83;21518;-71
2022/07/12 09:26:28;;;;;;;2.60;1.45;;;;;;;18.35;100.00;98923.49;1718876;83;21274;-71
2022/07/12 09:28:54;;;;;;;2.58;1.87;;;;;;;18.43;100.00;98931.39;1719161;83;20939;-71
2022/07/12 09:31:21;;;;;;;3.77;1.62;;;;;;;18.47;100.00;98935.62;1691138;83;20888;-69
2022/07/12 09:36:56;;;;;;;1.20;1.10;;;;;;;18.09;100.00;98921.33;1719434;83;20896;-70
2022/07/12 09:39:24;;;;;;;4.72;1.80;;;;;;;18.51;100.00;98941.45;1719387;83;21095;-69
2022/07/12 09:41:54;;;;;;;2.65;1.45;;;;;;;18.20;100.00;98933.46;1719428;83;21578;-72
2022/07/12 09:44:21;;;;;;;2.60;2.40;;;;;;;18.42;100.00;98934.68;1719558;83;20861;-73
2022/07/12 09:46:48;;;;;;;2.15;1.70;;;;;;;18.52;100.00;98930.02;1719267;83;20882;-71
2022/07/12 09:49:15;;;;;;;1.80;1.50;;;;;;;18.70;100.00;98935.67;1719655;83;21491;-70
2022/07/12 09:51:42;;;;;;;2.20;1.70;;;;;;;18.99;100.00;98921.41;1719170;83;22163;-68
2022/07/12 09:54:08;;;;;;;1.50;1.40;;;;;;;18.95;100.00;98922.38;1719609;83;20877;-70
2022/07/12 09:56:35;;;;;;;2.35;1.30;;;;;;;19.23;100.00;98924.92;1719201;83;20848;-69
2022/07/12 09:59:04;;;;;;;5.22;1.35;;;;;;;19.06;100.00;98935.30;1719735;83;20900;-72
2022/07/12 10:01:32;;;;;;;3.20;1.67;;;;;;;19.34;100.00;98925.34;1719285;83;20928;-69
2022/07/12 10:03:59;;;;;;;2.52;1.77;;;;;;;19.57;100.00;98933.23;1719602;83;21129;-71
2022/07/12 10:06:29;;;;;;;1.98;1.30;;;;;;;19.82;100.00;98939.14;1691122;83;20949;-70
2022/07/12 10:08:57;;;;;;;4.87;3.05;;;;;;;19.77;100.00;98929.81;1719538;83;20908;-69
2022/07/12 10:11:24;;;;;;;3.65;3.00;;;;;;;20.10;100.00;98935.91;1719561;83;20889;-70
2022/07/12 10:13:51;;;;;;;4.17;2.13;;;;;;;20.03;100.00;98922.02;1719885;83;20961;-68
2022/07/12 10:16:29;;;;;;;2.98;1.60;;;;;;;20.16;100.00;98922.87;1719553;83;21197;-68
2022/07/12 10:19:36;;;;;;;2.90;1.95;;;;;;;20.23;100.00;98919.05;1719500;83;20872;-72
2022/07/12 10:22:04;;;;;;;5.22;1.25;;;;;;;20.16;99.18;98922.87;1719332;83;20896;-71
2022/07/12 10:24:45;;;;;;;2.10;1.05;;;;;;;20.13;88.70;98903.90;1719490;83;21350;-70
2022/07/12 10:27:20;;;;;;;1.37;1.05;;;;;;;19.86;100.00;98917.48;1719280;83;20940;-68
2022/07/12 10:29:48;;;;;;;2.92;1.80;;;;;;;19.88;100.00;98912.51;1719547;83;21134;-68
2022/07/12 10:32:25;;;;;;;6.80;2.08;;;;;;;19.98;100.00;98918.92;1719511;83;20916;-71
2022/07/12 10:35:06;;;;;;;5.23;2.77;;;;;;;20.88;91.03;98915.34;1718052;83;20932;-72
2022/07/12 10:37:34;;;;;;;3.98;2.90;;;;;;;20.88;91.03;98915.34;1719433;83;21478;-72
2022/07/12 10:40:17;;;;;;;5.55;5.10;;;;;;;21.06;74.05;98911.84;1720111;83;20897;-70
2022/07/12 10:43:05;;;;;;;8.35;6.20;;;;;;;20.99;80.65;98926.03;1691809;83;21205;-69
2022/07/12 10:45:35;;;;;;;2.02;1.30;;;;;;;21.11;78.59;98921.96;1711413;83;20969;-72
2022/07/12 10:48:07;;;;;;;2.83;2.12;;;;;;;20.42;76.45;98918.58;1719279;83;20980;-70
2022/07/12 10:50:49;;;;;;;5.15;2.75;;;;;;;20.38;81.16;98923.88;1719708;83;20884;-72
2022/07/12 10:53:33;;;;;;;3.80;1.92;;;;;;;20.48;83.34;98921.31;1719679;83;20944;-71
2022/07/12 10:56:20;;;;;;;3.92;1.57;;;;;;;20.47;79.83;98918.36;1719681;83;21766;-71
2022/07/12 10:58:54;;;;;;;1.20;1.10;;;;;;;20.20;78.15;98926.53;1719694;83;20977;-70
2022/07/12 11:01:30;;;;;;;3.50;1.45;;;;;;;20.34;82.91;98922.41;1719761;83;21089;-72
2022/07/12 11:04:06;;;;;;;5.05;3.98;;;;;;;20.28;84.59;98921.00;1719613;83;21439;-71
2022/07/12 11:06:39;;;;;;;2.80;1.20;;;;;;;20.43;83.59;98925.61;1719763;83;20845;-69
2022/07/12 11:09:10;;;;;;;1.42;1.25;;;;;;;20.44;84.98;98925.28;1678952;83;21797;-72
2022/07/12 11:11:45;;;;;;;3.45;3.12;;;;;;;20.60;76.60;98912.41;1718564;83;20920;-68
2022/07/12 11:14:15;;;;;;;2.50;1.45;;;;;;;20.60;79.40;98921.95;1719547;83;21426;-71
2022/07/12 11:16:47;;;;;;;2.17;1.45;;;;;;;20.72;77.95;98928.81;1691344;83;20872;-72
2022/07/12 11:19:14;;;;;;;3.25;2.77;;;;;;;20.66;72.62;98925.51;1719473;83;21480;-71
2022/07/12 11:21:45;;;;;;;2.27;1.90;;;;;;;21.01;76.20;98922.98;1724281;83;21033;-71
2022/07/12 11:24:23;;;;;;;3.50;1.40;;;;;;;21.27;73.75;98927.56;1724739;83;21480;-69
2022/07/12 11:26:50;;;;;;;2.08;1.87;;;;;;;21.05;67.72;98924.70;1725175;83;20900;-73
2022/07/12 11:29:17;;;;;;;1.77;1.67;;;;;;;20.91;64.16;98925.00;1725078;83;20932;-71
2022/07/12 11:31:44;;;;;;;4.05;3.02;;;;;;;20.91;69.79;98922.27;1725076;83;20884;-71
2022/07/12 11:34:24;;;;;;;1.97;1.40;;;;;;;20.73;64.08;98919.52;1725191;83;21415;-70
2022/07/12 11:36:54;;;;;;;2.10;2.00;;;;;;;20.76;75.74;98908.72;1725050;83;20912;-69
2022/07/12 11:39:35;;;;;;;4.03;3.17;;;;;;;21.14;67.43;98924.03;1724813;83;20939;-72
2022/07/12 11:42:04;;;;;;;2.00;1.80;;;;;;;21.18;64.82;98918.11;1725048;83;20920;-69